Time,TemperatureF,DewpointF,PressureIn,WindDirection,WindDirectionDegrees,WindSpeedMPH,WindSpeedGustMPH,Humidity,HourlyPrecipIn,Conditions,Clouds,dailyrainin,SolarRadiationWatts/m^2,SoftwareType,DateUTC
2013-07-13 00:01:00,65.0,65.0,30.13,NE,50,5.0,10.0,99,0.01,,,0.48,0.000000,,2013-07-13 04:01:00,
2013-07-13 00:10:00,63.0,63.0,30.14,NE,45,3.0,12.0,99,0.00,,,0.48,0.000000,,2013-07-13 04:10:00,
2013-07-13 00:44:00,63.0,63.0,30.14,NE,45,3.0,12.0,99,0.00,,,0.48,0.000000,,2013-07-13 04:44:00,
2013-07-13 00:52:00,63.0,63.0,30.14,NE,45,3.0,12.0,99,0.00,,,0.48,0.000000,,2013-07-13 04:52:00,
2013-07-13 01:01:00,63.0,63.0,30.14,NE,45,3.0,12.0,99,0.00,,,0.48,0.000000,,2013-07-13 05:01:00,
2013-07-13 01:10:00,64.0,64.0,30.14,ENE,65,5.0,14.0,99,0.00,,,0.48,0.000000,,2013-07-13 05:10:00,
2013-07-13 01:42:00,64.0,64.0,30.14,ENE,65,5.0,14.0,99,0.00,,,0.48,0.000000,,2013-07-13 05:42:00,
2013-07-13 01:52:00,64.0,64.0,30.14,ENE,65,5.0,14.0,99,0.00,,,0.48,0.000000,,2013-07-13 05:52:00,
2013-07-13 02:02:00,64.0,64.0,30.14,ENE,65,5.0,14.0,99,0.00,,,0.48,0.000000,,2013-07-13 06:02:00,
2013-07-13 02:10:00,62.0,62.0,30.14,SSW,199,3.0,14.0,100,0.00,,,0.48,0.000000,,2013-07-13 06:10:00,
2013-07-13 02:43:00,62.0,62.0,30.14,SSW,199,3.0,14.0,100,0.00,,,0.48,0.000000,,2013-07-13 06:43:00,
2013-07-13 02:52:00,62.0,62.0,30.14,SSW,199,3.0,14.0,100,0.00,,,0.48,0.000000,,2013-07-13 06:52:00,
2013-07-13 03:02:00,62.0,62.0,30.14,SSW,199,3.0,14.0,100,0.00,,,0.48,0.000000,,2013-07-13 07:02:00,
2013-07-13 03:10:00,62.0,62.0,30.14,NNE,21,4.0,13.0,100,0.00,,,0.48,0.000000,,2013-07-13 07:10:00,
2013-07-13 03:44:00,62.0,62.0,30.14,NNE,21,4.0,13.0,100,0.00,,,0.48,0.000000,,2013-07-13 07:44:00,
2013-07-13 03:53:00,62.0,62.0,30.14,NNE,21,4.0,13.0,100,0.00,,,0.48,0.000000,,2013-07-13 07:53:00,
2013-07-13 04:02:00,62.0,62.0,30.14,NNE,21,4.0,13.0,100,0.00,,,0.48,0.000000,,2013-07-13 08:02:00,
2013-07-13 04:10:00,63.0,63.0,30.14,North,9,5.0,14.0,100,0.00,,,0.48,0.000000,,2013-07-13 08:10:00,
2013-07-13 04:43:00,63.0,63.0,30.14,North,9,5.0,14.0,100,0.00,,,0.48,0.000000,,2013-07-13 08:43:00,
2013-07-13 04:52:00,63.0,63.0,30.14,North,9,5.0,14.0,100,0.00,,,0.48,0.000000,,2013-07-13 08:52:00,
2013-07-13 05:02:00,63.0,63.0,30.14,North,9,5.0,14.0,100,0.00,,,0.48,0.000000,,2013-07-13 09:02:00,
2013-07-13 05:10:00,63.0,63.0,30.14,WNW,289,4.0,17.0,100,0.00,,,0.48,0.000000,,2013-07-13 09:10:00,
2013-07-13 05:43:00,63.0,63.0,30.14,WNW,289,4.0,17.0,100,0.00,,,0.48,0.000000,,2013-07-13 09:43:00,
2013-07-13 05:53:00,63.0,63.0,30.14,WNW,289,4.0,17.0,100,0.00,,,0.48,0.000000,,2013-07-13 09:53:00,
2013-07-13 06:01:00,63.0,63.0,30.14,WNW,289,4.0,17.0,100,0.00,,,0.48,0.000000,,2013-07-13 10:01:00,
2013-07-13 06:10:00,63.0,63.0,30.16,NNE,12,4.0,15.0,100,0.00,,,0.48,0.000000,,2013-07-13 10:10:00,
2013-07-13 06:43:00,63.0,63.0,30.16,NNE,12,4.0,15.0,100,0.00,,,0.48,0.000000,,2013-07-13 10:43:00,
2013-07-13 06:52:00,63.0,63.0,30.16,NNE,12,4.0,15.0,100,0.00,,,0.48,0.000000,,2013-07-13 10:52:00,
2013-07-13 07:02:00,63.0,63.0,30.16,NNE,12,4.0,15.0,100,0.00,,,0.48,0.000000,,2013-07-13 11:02:00,
2013-07-13 07:10:00,62.0,62.0,30.17,North,359,3.0,17.0,100,0.00,,,0.48,0.000000,,2013-07-13 11:10:00,
2013-07-13 07:43:00,62.0,62.0,30.17,North,359,3.0,17.0,100,0.00,,,0.48,0.000000,,2013-07-13 11:43:00,
2013-07-13 07:52:00,62.0,62.0,30.17,North,359,3.0,17.0,100,0.00,,,0.48,0.000000,,2013-07-13 11:52:00,
2013-07-13 08:02:00,62.0,62.0,30.17,North,359,3.0,17.0,100,0.00,,,0.48,0.000000,,2013-07-13 12:02:00,
2013-07-13 08:10:00,62.0,62.0,30.19,East,95,3.0,11.0,100,0.00,,,0.48,4.000000,,2013-07-13 12:10:00,
2013-07-13 08:43:00,62.0,62.0,30.19,East,95,3.0,11.0,100,0.00,,,0.48,4.000000,,2013-07-13 12:43:00,
2013-07-13 08:52:00,62.0,62.0,30.19,East,95,3.0,11.0,100,0.00,,,0.48,4.000000,,2013-07-13 12:52:00,
2013-07-13 09:01:00,62.0,62.0,30.19,East,95,3.0,11.0,100,0.00,,,0.48,4.000000,,2013-07-13 13:01:00,
2013-07-13 09:10:00,64.0,64.0,30.21,NNE,22,3.0,10.0,100,0.00,,,0.48,18.000000,,2013-07-13 13:10:00,
2013-07-13 09:43:00,64.0,64.0,30.21,NNE,22,3.0,10.0,100,0.00,,,0.48,18.000000,,2013-07-13 13:43:00,
2013-07-13 09:53:00,64.0,64.0,30.21,NNE,22,3.0,10.0,100,0.00,,,0.48,18.000000,,2013-07-13 13:53:00,
2013-07-13 10:02:00,64.0,64.0,30.21,NNE,22,3.0,10.0,100,0.00,,,0.48,18.000000,,2013-07-13 14:02:00,
2013-07-13 10:10:00,66.0,66.0,30.22,NNE,29,3.0,10.0,100,0.00,,,0.48,29.000000,,2013-07-13 14:10:00,
2013-07-13 10:44:00,66.0,66.0,30.22,NNE,29,3.0,10.0,100,0.00,,,0.48,29.000000,,2013-07-13 14:44:00,
2013-07-13 10:53:00,66.0,66.0,30.22,NNE,29,3.0,10.0,100,0.00,,,0.48,29.000000,,2013-07-13 14:53:00,
2013-07-13 11:02:00,66.0,66.0,30.22,NNE,29,3.0,10.0,100,0.00,,,0.48,29.000000,,2013-07-13 15:02:00,
2013-07-13 11:10:00,68.0,65.0,30.24,NNE,21,4.0,10.0,90,0.00,,,0.48,140.000000,,2013-07-13 15:10:00,
2013-07-13 11:43:00,68.0,65.0,30.24,NNE,21,4.0,10.0,90,0.00,,,0.48,140.000000,,2013-07-13 15:43:00,
2013-07-13 11:53:00,68.0,65.0,30.24,NNE,21,4.0,10.0,90,0.00,,,0.48,140.000000,,2013-07-13 15:53:00,
2013-07-13 12:02:00,68.0,65.0,30.24,NNE,21,4.0,10.0,90,0.00,,,0.48,140.000000,,2013-07-13 16:02:00,
2013-07-13 12:10:00,70.0,66.0,30.24,SSW,201,2.0,6.0,87,0.00,,,0.48,315.000000,,2013-07-13 16:10:00,
2013-07-13 12:43:00,70.0,66.0,30.24,SSW,201,2.0,6.0,87,0.00,,,0.48,315.000000,,2013-07-13 16:43:00,
2013-07-13 12:53:00,70.0,66.0,30.24,SSW,201,2.0,6.0,87,0.00,,,0.48,315.000000,,2013-07-13 16:53:00,
2013-07-13 13:01:00,70.0,66.0,30.24,SSW,201,2.0,6.0,87,0.00,,,0.48,315.000000,,2013-07-13 17:01:00,
2013-07-13 13:10:00,70.0,66.0,30.24,NNE,27,3.0,13.0,87,0.01,,,0.49,310.000000,,2013-07-13 17:10:00,
2013-07-13 13:43:00,70.0,66.0,30.24,NNE,27,3.0,13.0,87,0.01,,,0.49,310.000000,,2013-07-13 17:43:00,
2013-07-13 13:52:00,70.0,66.0,30.24,NNE,27,3.0,13.0,87,0.01,,,0.49,310.000000,,2013-07-13 17:52:00,
2013-07-13 14:01:00,70.0,66.0,30.24,NNE,27,3.0,13.0,87,0.01,,,0.49,310.000000,,2013-07-13 18:01:00,
2013-07-13 14:10:00,73.0,65.0,30.23,ENE,72,4.0,11.0,77,0.00,,,0.49,386.000000,,2013-07-13 18:10:00,
2013-07-13 14:44:00,73.0,65.0,30.23,ENE,72,4.0,11.0,77,0.00,,,0.49,386.000000,,2013-07-13 18:44:00,
2013-07-13 14:53:00,73.0,65.0,30.23,ENE,72,4.0,11.0,77,0.00,,,0.49,386.000000,,2013-07-13 18:53:00,
2013-07-13 15:02:00,73.0,65.0,30.23,ENE,72,4.0,11.0,77,0.00,,,0.49,386.000000,,2013-07-13 19:02:00,
2013-07-13 15:10:00,74.0,66.0,30.22,South,170,4.0,12.0,77,0.00,,,0.49,543.000000,,2013-07-13 19:10:00,
2013-07-13 15:32:00,74.0,66.0,30.22,South,170,4.0,12.0,77,0.00,,,0.49,543.000000,,2013-07-13 19:32:00,
2013-07-13 15:44:00,74.0,66.0,30.22,South,170,4.0,12.0,77,0.00,,,0.49,543.000000,,2013-07-13 19:44:00,
2013-07-13 15:52:00,74.0,66.0,30.22,South,170,4.0,12.0,77,0.00,,,0.49,543.000000,,2013-07-13 19:52:00,
2013-07-13 16:01:00,74.0,66.0,30.22,South,170,4.0,12.0,77,0.00,,,0.49,543.000000,,2013-07-13 20:01:00,
2013-07-13 16:10:00,73.0,67.0,30.22,North,1,4.0,11.0,81,0.00,,,0.19,607.000000,,2013-07-13 20:10:00,
2013-07-13 16:43:00,73.0,67.0,30.22,North,1,4.0,11.0,81,0.00,,,0.19,607.000000,,2013-07-13 20:43:00,
2013-07-13 16:53:00,73.0,67.0,30.22,North,1,4.0,11.0,81,0.00,,,0.19,607.000000,,2013-07-13 20:53:00,
2013-07-13 17:02:00,73.0,67.0,30.22,North,1,4.0,11.0,81,0.00,,,0.19,607.000000,,2013-07-13 21:02:00,
2013-07-13 17:10:00,73.0,67.0,30.22,East,82,4.0,13.0,81,0.00,,,0.14,417.000000,,2013-07-13 21:10:00,
2013-07-13 17:43:00,73.0,67.0,30.22,East,82,4.0,13.0,81,0.00,,,0.14,417.000000,,2013-07-13 21:43:00,
2013-07-13 17:53:00,73.0,67.0,30.22,East,82,4.0,13.0,81,0.00,,,0.14,417.000000,,2013-07-13 21:53:00,
2013-07-13 18:01:00,73.0,67.0,30.22,East,82,4.0,13.0,81,0.00,,,0.14,417.000000,,2013-07-13 22:01:00,
2013-07-13 18:10:00,73.0,68.0,30.21,WSW,256,3.0,15.0,83,0.00,,,0.14,491.000000,,2013-07-13 22:10:00,
2013-07-13 18:43:00,73.0,68.0,30.21,WSW,256,3.0,15.0,83,0.00,,,0.14,491.000000,,2013-07-13 22:43:00,
2013-07-13 18:53:00,73.0,68.0,30.21,WSW,256,3.0,15.0,83,0.00,,,0.14,491.000000,,2013-07-13 22:53:00,
2013-07-13 19:02:00,73.0,68.0,30.21,WSW,256,3.0,15.0,83,0.00,,,0.14,491.000000,,2013-07-13 23:02:00,
2013-07-13 19:10:00,70.0,67.0,30.22,SSE,157,4.0,13.0,90,0.00,,,0.10,221.000000,,2013-07-13 23:10:00,
2013-07-13 19:42:00,70.0,67.0,30.22,SSE,157,4.0,13.0,90,0.00,,,0.10,221.000000,,2013-07-13 23:42:00,
2013-07-13 19:53:00,70.0,67.0,30.22,SSE,157,4.0,13.0,90,0.00,,,0.10,221.000000,,2013-07-13 23:53:00,
2013-07-13 20:01:00,70.0,67.0,30.22,SSE,157,4.0,13.0,90,0.00,,,0.10,221.000000,,2013-07-14 00:01:00,
2013-07-13 20:10:00,68.0,66.0,30.24,NNE,31,4.0,11.0,94,0.00,,,-99.99,145.000000,,2013-07-14 00:10:00,
2013-07-13 20:42:00,68.0,66.0,30.24,NNE,31,4.0,11.0,94,0.00,,,-99.99,145.000000,,2013-07-14 00:42:00,
2013-07-13 20:53:00,68.0,66.0,30.24,NNE,31,4.0,11.0,94,0.00,,,-99.99,145.000000,,2013-07-14 00:53:00,
2013-07-13 21:02:00,68.0,66.0,30.24,NNE,31,4.0,11.0,94,0.00,,,-99.99,145.000000,,2013-07-14 01:02:00,
2013-07-13 21:10:00,69.0,68.0,30.23,WNW,295,4.0,12.0,96,0.00,,,0.02,67.000000,,2013-07-14 01:10:00,
2013-07-13 21:43:00,69.0,68.0,30.23,WNW,295,4.0,12.0,96,0.00,,,0.02,67.000000,,2013-07-14 01:43:00,
2013-07-13 21:52:00,69.0,68.0,30.23,WNW,295,4.0,12.0,96,0.00,,,0.02,67.000000,,2013-07-14 01:52:00,
2013-07-13 22:02:00,69.0,68.0,30.23,WNW,295,4.0,12.0,96,0.00,,,0.02,67.000000,,2013-07-14 02:02:00,
2013-07-13 22:10:00,67.0,67.0,30.24,ENE,57,7.0,15.0,99,0.00,,,0.02,10.000000,,2013-07-14 02:10:00,
2013-07-13 22:32:00,67.0,67.0,30.24,ENE,57,7.0,15.0,99,0.00,,,0.02,10.000000,,2013-07-14 02:32:00,
2013-07-13 22:43:00,67.0,67.0,30.24,ENE,57,7.0,15.0,99,0.00,,,0.02,10.000000,,2013-07-14 02:43:00,
2013-07-13 22:53:00,67.0,67.0,30.24,ENE,57,7.0,15.0,99,0.00,,,0.02,10.000000,,2013-07-14 02:53:00,
2013-07-13 23:02:00,67.0,67.0,30.24,ENE,57,7.0,15.0,99,0.00,,,0.02,10.000000,,2013-07-14 03:02:00,
2013-07-13 23:10:00,67.0,67.0,30.25,ENE,61,6.0,21.0,100,0.02,,,0.03,0.000000,,2013-07-14 03:10:00,
2013-07-13 23:43:00,67.0,67.0,30.25,ENE,61,6.0,21.0,100,0.02,,,0.03,0.000000,,2013-07-14 03:43:00,
2013-07-13 23:53:00,67.0,67.0,30.25,ENE,61,6.0,21.0,100,0.02,,,0.03,0.000000,,2013-07-14 03:53:00,